Wetterdaten: Woche 03.11.08 - 09.11.08 (KW45)
Datum Zeit Temperatur Luftfeuchte Luftdruck Niederschlag Windrichtung Wind
03.11.2008 00:00 7,9 C 99 % 1011,0 hPa 0,0 l/m NO 8,4 km/h (2 Bft)
03.11.2008 01:00 7,8 C 99 % 1010,9 hPa 0,0 l/m N-NO 7,8 km/h (2 Bft)
03.11.2008 02:00 7,7 C 99 % 1011,0 hPa 0,0 l/m NO 6,3 km/h (2 Bft)
03.11.2008 03:00 7,6 C 99 % 1010,7 hPa 0,0 l/m N-NO 5,7 km/h (1 Bft)
03.11.2008 04:00 7,3 C 99 % 1010,9 hPa 0,0 l/m NO 5,3 km/h (1 Bft)
03.11.2008 05:00 7,1 C 99 % 1011,8 hPa 0,0 l/m W-NW 4,3 km/h (1 Bft)
03.11.2008 06:00 6,8 C 99 % 1012,2 hPa 0,0 l/m NW 2,3 km/h (1 Bft)
03.11.2008 07:00 6,7 C 98 % 1012,5 hPa 0,0 l/m S 8,6 km/h (2 Bft)
03.11.2008 08:00 6,8 C 99 % 1012,7 hPa 0,0 l/m S-SW 7,2 km/h (2 Bft)
03.11.2008 09:00 7,2 C 99 % 1012,9 hPa 0,0 l/m N-NO 7,6 km/h (2 Bft)
03.11.2008 10:00 7,4 C 97 % 1012,8 hPa 0,0 l/m N-NO 9,8 km/h (2 Bft)
03.11.2008 11:00 8,3 C 96 % 1012,9 hPa 0,0 l/m N 7,6 km/h (2 Bft)
03.11.2008 12:00 10,7 C 89 % 1012,5 hPa 0,0 l/m NO 6,0 km/h (2 Bft)
03.11.2008 13:00 12,6 C 83 % 1012,2 hPa 0,0 l/m N-NO 7,0 km/h (2 Bft)
03.11.2008 14:00 12,4 C 83 % 1012,2 hPa 0,0 l/m N-NO 5,9 km/h (2 Bft)
03.11.2008 15:00 12,5 C 86 % 1012,5 hPa 0,0 l/m N 3,9 km/h (1 Bft)
03.11.2008 16:00 12,1 C 88 % 1012,6 hPa 0,0 l/m N 5,2 km/h (1 Bft)
03.11.2008 17:00 11,1 C 91 % 1012,9 hPa 0,0 l/m N-NW 5,1 km/h (1 Bft)
03.11.2008 18:00 10,2 C 93 % 1013,3 hPa 0,0 l/m N-NW 6,5 km/h (2 Bft)
03.11.2008 19:00 9,7 C 96 % 1013,7 hPa 0,0 l/m N-NO 6,5 km/h (2 Bft)
03.11.2008 20:00 9,6 C 96 % 1013,8 hPa 0,0 l/m NW 6,3 km/h (2 Bft)
03.11.2008 21:00 9,4 C 97 % 1014,7 hPa 0,0 l/m N-NW 4,4 km/h (1 Bft)
03.11.2008 22:00 9,3 C 97 % 1015,6 hPa 0,4 l/m NW 4,4 km/h (1 Bft)
03.11.2008 23:00 9,3 C 98 % 1015,6 hPa 0,4 l/m N-NO 3,9 km/h (1 Bft)
04.11.2008 00:00 9,2 C 98 % 1015,3 hPa 0,0 l/m W-SW 2,1 km/h (1 Bft)
04.11.2008 01:00 8,9 C 97 % 1015,0 hPa 0,0 l/m N-NW 3,1 km/h (1 Bft)
04.11.2008 02:00 7,9 C 95 % 1015,4 hPa 0,0 l/m N 1,2 km/h (1 Bft)
04.11.2008 03:00 7,0 C 97 % 1015,9 hPa 0,0 l/m N-NW 6,6 km/h (2 Bft)
04.11.2008 04:00 6,7 C 98 % 1016,2 hPa 0,0 l/m N-NW 3,3 km/h (1 Bft)
04.11.2008 05:00 6,3 C 98 % 1016,2 hPa 0,0 l/m N 4,3 km/h (1 Bft)
04.11.2008 06:00 5,9 C 98 % 1016,2 hPa 0,0 l/m N 2,8 km/h (1 Bft)
04.11.2008 07:00 5,4 C 98 % 1016,2 hPa 0,0 l/m N 3,9 km/h (1 Bft)
04.11.2008 08:00 5,5 C 99 % 1016,2 hPa 0,0 l/m N-NO 4,4 km/h (1 Bft)
04.11.2008 09:00 6,8 C 100 % 1016,2 hPa 0,0 l/m NO 7,6 km/h (2 Bft)
04.11.2008 10:00 8,0 C 100 % 1016,0 hPa 0,0 l/m O-NO 8,4 km/h (2 Bft)
04.11.2008 11:00 8,5 C 100 % 1015,5 hPa 0,0 l/m N-NO 11,1 km/h (2 Bft)
04.11.2008 12:00 8,7 C 99 % 1015,3 hPa 0,0 l/m NO 11,8 km/h (2 Bft)
04.11.2008 13:00 8,8 C 97 % 1014,8 hPa 0,0 l/m NO 11,6 km/h (2 Bft)
04.11.2008 14:00 8,9 C 96 % 1013,9 hPa 0,0 l/m NO 15,7 km/h (3 Bft)
04.11.2008 15:00 8,8 C 96 % 1013,4 hPa 0,0 l/m O-NO 13,3 km/h (3 Bft)
04.11.2008 16:00 8,8 C 96 % 1013,0 hPa 0,0 l/m NO 15,8 km/h (3 Bft)
04.11.2008 17:00 8,6 C 95 % 1012,2 hPa 0,0 l/m O-NO 18,0 km/h (3 Bft)
04.11.2008 18:00 8,3 C 97 % 1011,4 hPa 0,0 l/m NO 13,4 km/h (3 Bft)
04.11.2008 19:00 8,2 C 97 % 1010,2 hPa 0,0 l/m O-NO 16,2 km/h (3 Bft)
04.11.2008 20:00 7,9 C 98 % 1009,5 hPa 0,0 l/m NO 15,2 km/h (3 Bft)
04.11.2008 21:00 7,8 C 98 % 1008,9 hPa 0,0 l/m NO 16,4 km/h (3 Bft)
04.11.2008 22:00 7,8 C 99 % 1008,2 hPa 0,0 l/m N-NO 12,6 km/h (3 Bft)
04.11.2008 23:00 7,9 C 98 % 1007,7 hPa 0,0 l/m NO 12,2 km/h (2 Bft)
05.11.2008 00:00 8,1 C 98 % 1007,1 hPa 0,0 l/m N-NO 12,1 km/h (2 Bft)
05.11.2008 01:00 8,1 C 97 % 1007,0 hPa 0,0 l/m N-NO 9,5 km/h (2 Bft)
05.11.2008 02:00 8,1 C 98 % 1007,8 hPa 0,0 l/m N-NO 6,8 km/h (2 Bft)
05.11.2008 03:00 7,9 C 98 % 1007,8 hPa 0,0 l/m N-NO 7,2 km/h (2 Bft)
05.11.2008 04:00 7,8 C 97 % 1008,0 hPa 0,0 l/m O-NO 4,1 km/h (1 Bft)
05.11.2008 05:00 7,6 C 98 % 1008,2 hPa 0,0 l/m W-NW 5,3 km/h (1 Bft)
05.11.2008 06:00 7,1 C 98 % 1008,4 hPa 0,0 l/m W-SW 4,1 km/h (1 Bft)
05.11.2008 07:00 6,7 C 98 % 1008,8 hPa 0,0 l/m S 7,5 km/h (2 Bft)
05.11.2008 08:00 6,7 C 99 % 1009,4 hPa 0,0 l/m S 3,9 km/h (1 Bft)
05.11.2008 09:00 7,0 C 99 % 1009,7 hPa 0,0 l/m SW 4,3 km/h (1 Bft)
05.11.2008 10:00 8,2 C 97 % 1010,3 hPa 0,0 l/m N-NO 5,6 km/h (1 Bft)
05.11.2008 11:00 9,8 C 93 % 1010,5 hPa 0,0 l/m N-NO 6,0 km/h (2 Bft)
05.11.2008 12:00 12,4 C 82 % 1010,3 hPa 0,0 l/m N-NO 5,1 km/h (1 Bft)
05.11.2008 13:00 14,3 C 74 % 1010,3 hPa 0,0 l/m N-NO 7,0 km/h (2 Bft)
05.11.2008 14:00 12,8 C 81 % 1010,6 hPa 0,0 l/m N-NO 10,3 km/h (2 Bft)
05.11.2008 15:00 12,4 C 80 % 1011,0 hPa 0,0 l/m O-NO 6,4 km/h (2 Bft)
05.11.2008 16:00 11,6 C 82 % 1011,8 hPa 0,0 l/m NW 3,6 km/h (1 Bft)
05.11.2008 17:00 10,2 C 86 % 1012,2 hPa 0,0 l/m N 0,5 km/h (0 Bft)
05.11.2008 18:00 8,8 C 90 % 1012,6 hPa 0,0 l/m S-SW 1,6 km/h (1 Bft)
05.11.2008 19:00 7,8 C 93 % 1013,2 hPa 0,0 l/m SW 3,5 km/h (1 Bft)
05.11.2008 20:00 7,0 C 93 % 1013,5 hPa 0,0 l/m N 1,1 km/h (0 Bft)
05.11.2008 21:00 6,3 C 95 % 1013,8 hPa 0,0 l/m N 1,3 km/h (1 Bft)
05.11.2008 22:00 6,2 C 97 % 1013,9 hPa 0,0 l/m W-NW 2,0 km/h (1 Bft)
05.11.2008 23:00 5,6 C 97 % 1014,2 hPa 0,0 l/m O-NO 4,3 km/h (1 Bft)
06.11.2008 00:00 5,4 C 98 % 1014,2 hPa 0,0 l/m N 4,7 km/h (1 Bft)
06.11.2008 01:00 5,0 C 98 % 1014,5 hPa 0,0 l/m N-NO 5,3 km/h (1 Bft)
06.11.2008 02:00 4,8 C 98 % 1014,7 hPa 0,0 l/m NO 5,9 km/h (2 Bft)
06.11.2008 03:00 4,8 C 99 % 1014,7 hPa 0,0 l/m N-NO 5,2 km/h (1 Bft)
06.11.2008 04:00 5,2 C 99 % 1014,9 hPa 0,0 l/m NO 7,1 km/h (2 Bft)
06.11.2008 05:00 5,1 C 99 % 1015,1 hPa 0,0 l/m NO 7,6 km/h (2 Bft)
06.11.2008 06:00 5,1 C 99 % 1015,0 hPa 0,0 l/m NO 9,1 km/h (2 Bft)
06.11.2008 07:00 5,1 C 99 % 1015,2 hPa 0,0 l/m NO 4,3 km/h (1 Bft)
06.11.2008 08:00 5,6 C 99 % 1015,4 hPa 0,0 l/m O-SO 5,5 km/h (1 Bft)
06.11.2008 09:00 6,5 C 100 % 1015,1 hPa 0,0 l/m NO 5,1 km/h (1 Bft)
06.11.2008 10:00 6,9 C 100 % 1015,1 hPa 0,0 l/m O-NO 6,4 km/h (2 Bft)
06.11.2008 11:00 7,1 C 100 % 1014,8 hPa 0,0 l/m N-NO 5,7 km/h (1 Bft)
06.11.2008 12:00 7,4 C 99 % 1014,5 hPa 0,0 l/m O-SO 4,8 km/h (1 Bft)
06.11.2008 13:00 7,7 C 98 % 1014,1 hPa 0,0 l/m N-NO 2,9 km/h (1 Bft)
06.11.2008 14:00 7,8 C 97 % 1014,1 hPa 0,0 l/m O-SO 2,8 km/h (1 Bft)
06.11.2008 15:00 7,8 C 96 % 1014,4 hPa 0,0 l/m NO 3,1 km/h (1 Bft)
06.11.2008 16:00 7,7 C 96 % 1014,4 hPa 0,0 l/m O-SO 1,7 km/h (1 Bft)
06.11.2008 17:00 7,6 C 96 % 1014,4 hPa 0,0 l/m SW 5,9 km/h (2 Bft)
06.11.2008 18:00 7,1 C 96 % 1014,8 hPa 0,0 l/m S-SW 9,0 km/h (2 Bft)
06.11.2008 19:00 6,6 C 97 % 1015,2 hPa 0,0 l/m S 9,8 km/h (2 Bft)
06.11.2008 20:00 6,3 C 97 % 1015,2 hPa 0,0 l/m SW 7,1 km/h (2 Bft)
06.11.2008 21:00 6,2 C 97 % 1015,3 hPa 0,0 l/m SW 7,4 km/h (2 Bft)
06.11.2008 22:00 6,1 C 96 % 1015,2 hPa 0,0 l/m W 5,1 km/h (1 Bft)
06.11.2008 23:00 6,2 C 96 % 1015,0 hPa 0,0 l/m SW 7,1 km/h (2 Bft)
07.11.2008 00:00 6,4 C 95 % 1015,0 hPa 0,0 l/m SW 7,6 km/h (2 Bft)
07.11.2008 01:00 6,6 C 95 % 1015,1 hPa 0,0 l/m S-SW 3,5 km/h (1 Bft)
07.11.2008 02:00 6,6 C 96 % 1014,8 hPa 0,0 l/m S-SW 2,7 km/h (1 Bft)
07.11.2008 03:00 6,6 C 96 % 1014,7 hPa 0,0 l/m SW 6,4 km/h (2 Bft)
07.11.2008 04:00 6,7 C 94 % 1015,0 hPa 0,0 l/m W-SW 7,6 km/h (2 Bft)
07.11.2008 05:00 6,6 C 93 % 1014,9 hPa 0,0 l/m W-SW 11,3 km/h (2 Bft)
07.11.2008 06:00 6,4 C 94 % 1015,0 hPa 0,0 l/m W-SW 4,4 km/h (1 Bft)
07.11.2008 07:00 6,3 C 94 % 1015,3 hPa 0,0 l/m SW 4,4 km/h (1 Bft)
07.11.2008 08:00 6,6 C 94 % 1015,8 hPa 0,0 l/m SW 5,6 km/h (1 Bft)
07.11.2008 09:00 7,3 C 93 % 1016,0 hPa 0,0 l/m S-SW 7,8 km/h (2 Bft)
07.11.2008 10:00 8,4 C 90 % 1016,2 hPa 0,0 l/m SW 14,9 km/h (3 Bft)
07.11.2008 11:00 9,6 C 86 % 1016,2 hPa 0,0 l/m S-SW 16,2 km/h (3 Bft)
07.11.2008 12:00 10,3 C 82 % 1015,9 hPa 0,0 l/m S-SW 10,1 km/h (2 Bft)
07.11.2008 13:00 10,9 C 78 % 1015,7 hPa 0,0 l/m S 6,9 km/h (2 Bft)
07.11.2008 14:00 11,3 C 75 % 1015,5 hPa 0,0 l/m SW 7,8 km/h (2 Bft)
07.11.2008 15:00 10,9 C 76 % 1015,8 hPa 0,0 l/m S 3,7 km/h (1 Bft)
07.11.2008 16:00 10,3 C 80 % 1015,9 hPa 0,0 l/m N 0,5 km/h (0 Bft)
07.11.2008 17:00 8,6 C 84 % 1016,4 hPa 0,0 l/m N 0,0 km/h (0 Bft)
07.11.2008 18:00 6,8 C 89 % 1016,9 hPa 0,0 l/m N 0,4 km/h (0 Bft)
07.11.2008 19:00 5,5 C 91 % 1017,0 hPa 0,0 l/m N 0,0 km/h (0 Bft)
07.11.2008 20:00 4,5 C 92 % 1017,4 hPa 0,0 l/m N 0,0 km/h (0 Bft)
07.11.2008 21:00 3,7 C 93 % 1018,0 hPa 0,0 l/m N 0,0 km/h (0 Bft)
07.11.2008 22:00 3,0 C 93 % 1018,4 hPa 0,0 l/m N 0,0 km/h (0 Bft)
07.11.2008 23:00 2,5 C 94 % 1018,9 hPa 0,0 l/m N 0,0 km/h (0 Bft)
08.11.2008 00:00 1,9 C 95 % 1018,9 hPa 0,0 l/m N 0,0 km/h (0 Bft)
08.11.2008 01:00 1,4 C 95 % 1019,4 hPa 0,0 l/m N 0,3 km/h (0 Bft)
08.11.2008 02:00 1,3 C 97 % 1019,8 hPa 0,0 l/m N 0,0 km/h (0 Bft)
08.11.2008 03:00 1,2 C 96 % 1019,9 hPa 0,0 l/m N 0,0 km/h (0 Bft)
08.11.2008 04:00 1,0 C 96 % 1020,2 hPa 0,0 l/m N 0,0 km/h (0 Bft)
08.11.2008 05:00 0,9 C 97 % 1020,6 hPa 0,0 l/m N 0,0 km/h (0 Bft)
08.11.2008 06:00 1,0 C 97 % 1020,9 hPa 0,0 l/m N 0,3 km/h (0 Bft)
08.11.2008 07:00 0,8 C 96 % 1021,6 hPa 0,0 l/m N 0,1 km/h (0 Bft)
08.11.2008 08:00 0,8 C 97 % 1022,2 hPa 0,0 l/m N 0,0 km/h (0 Bft)
08.11.2008 09:00 1,8 C 99 % 1022,5 hPa 0,0 l/m N 0,0 km/h (0 Bft)
08.11.2008 10:00 3,6 C 99 % 1022,7 hPa 0,0 l/m N 0,1 km/h (0 Bft)
08.11.2008 11:00 6,6 C 97 % 1022,7 hPa 0,0 l/m SW 3,3 km/h (1 Bft)
08.11.2008 12:00 9,0 C 89 % 1022,2 hPa 0,0 l/m S-SW 6,8 km/h (2 Bft)
08.11.2008 13:00 9,8 C 86 % 1021,9 hPa 0,0 l/m S-SO 2,9 km/h (1 Bft)
08.11.2008 14:00 10,7 C 83 % 1021,6 hPa 0,2 l/m SO 3,1 km/h (1 Bft)
08.11.2008 15:00 11,0 C 81 % 1021,7 hPa 0,0 l/m O-SO 3,6 km/h (1 Bft)
08.11.2008 16:00 10,2 C 82 % 1021,9 hPa 0,0 l/m N 0,3 km/h (0 Bft)
08.11.2008 17:00 7,9 C 87 % 1022,2 hPa 0,0 l/m N 0,0 km/h (0 Bft)
08.11.2008 18:00 6,3 C 91 % 1022,7 hPa 0,0 l/m N 0,0 km/h (0 Bft)
08.11.2008 19:00 5,0 C 92 % 1023,1 hPa 0,0 l/m N 0,0 km/h (0 Bft)
08.11.2008 20:00 4,0 C 93 % 1023,5 hPa 0,0 l/m N 0,1 km/h (0 Bft)
08.11.2008 21:00 3,2 C 94 % 1023,8 hPa 0,0 l/m N 0,0 km/h (0 Bft)
08.11.2008 22:00 2,6 C 95 % 1023,9 hPa 0,0 l/m N 0,0 km/h (0 Bft)
08.11.2008 23:00 2,2 C 95 % 1024,0 hPa 0,0 l/m N 0,0 km/h (0 Bft)
09.11.2008 00:00 1,8 C 97 % 1024,0 hPa 0,0 l/m N 0,3 km/h (0 Bft)
09.11.2008 01:00 1,7 C 97 % 1024,2 hPa 0,0 l/m NO 0,7 km/h (0 Bft)
09.11.2008 02:00 1,6 C 97 % 1024,4 hPa 0,0 l/m S-SO 0,5 km/h (0 Bft)
09.11.2008 03:00 1,5 C 98 % 1024,3 hPa 0,0 l/m N 0,0 km/h (0 Bft)
09.11.2008 04:00 1,7 C 98 % 1024,4 hPa 0,0 l/m N 0,7 km/h (0 Bft)
09.11.2008 05:00 2,1 C 99 % 1024,4 hPa 0,0 l/m S-SW 2,9 km/h (1 Bft)
09.11.2008 06:00 1,4 C 98 % 1024,4 hPa 0,0 l/m N 0,9 km/h (0 Bft)
09.11.2008 07:00 0,9 C 98 % 1025,0 hPa 0,0 l/m N 0,7 km/h (0 Bft)
09.11.2008 08:00 1,7 C 99 % 1025,3 hPa 0,0 l/m S-SW 6,8 km/h (2 Bft)
09.11.2008 09:00 4,9 C 99 % 1025,5 hPa 0,0 l/m SW 11,3 km/h (2 Bft)
09.11.2008 10:00 7,6 C 94 % 1025,8 hPa 0,0 l/m S-SW 16,0 km/h (3 Bft)
09.11.2008 11:00 10,1 C 82 % 1025,8 hPa 0,0 l/m W-SW 19,3 km/h (3 Bft)
09.11.2008 12:00 11,1 C 72 % 1025,6 hPa 0,0 l/m SW 27,1 km/h (4 Bft)
09.11.2008 13:00 11,7 C 70 % 1025,1 hPa 0,0 l/m SW 23,4 km/h (4 Bft)
09.11.2008 14:00 11,8 C 70 % 1025,1 hPa 0,0 l/m SW 29,4 km/h (5 Bft)
09.11.2008 15:00 11,4 C 72 % 1025,2 hPa 0,0 l/m W-SW 22,5 km/h (4 Bft)
09.11.2008 16:00 10,6 C 76 % 1025,6 hPa 0,0 l/m SW 17,2 km/h (3 Bft)
09.11.2008 17:00 9,7 C 78 % 1025,7 hPa 0,0 l/m SW 13,4 km/h (3 Bft)
09.11.2008 18:00 9,2 C 82 % 1026,2 hPa 0,0 l/m SW 10,4 km/h (2 Bft)
09.11.2008 19:00 8,8 C 85 % 1025,9 hPa 0,0 l/m SW 9,4 km/h (2 Bft)
09.11.2008 20:00 8,4 C 85 % 1026,0 hPa 0,0 l/m SW 10,1 km/h (2 Bft)
09.11.2008 21:00 8,3 C 85 % 1025,9 hPa 0,0 l/m SW 10,2 km/h (2 Bft)
09.11.2008 22:00 7,9 C 87 % 1025,8 hPa 0,0 l/m SW 8,4 km/h (2 Bft)
09.11.2008 23:00 8,5 C 86 % 1025,5 hPa 0,0 l/m W-SW 14,0 km/h (3 Bft)
Min-Datum _ 08.11.08 09.11.08 05.11.08 - - 03.11.08
_ Min-Zeit 07:40 11:55 01:05 - - 06:20
Minimum _ 0,7 C 68 % 1006,4 hPa - - 0,0 km/h (0 Bft)
Max-Datum _ 05.11.08 04.11.08 09.11.08 03.11.08 - 09.11.08
_ Max-Zeit 13:40 09:15 19:05 22:20 - 14:00
Maximum _ 14,7 C 100 % 1026,3 hPa 0,4 l/m - 41,8 km/h
SW (6 Bft)
Durchschnitt _ 7,1 C 93 % 1016,4 hPa #1,0 l/m SW 6,2 km/h (2 Bft)